createdAt,value
2023-10-05T00:01:10.125Z,101530.38
2023-10-05T00:03:36.947Z,101532.94
2023-10-05T00:06:03.750Z,101533.78
2023-10-05T00:08:31.532Z,101528.59
2023-10-05T00:10:58.812Z,101532.84
2023-10-05T00:13:25.443Z,101534.56
2023-10-05T00:15:51.907Z,101535.41
2023-10-05T00:18:18.968Z,101531.09
2023-10-05T00:20:45.658Z,101529.34
2023-10-05T00:23:13.180Z,101530.19
2023-10-05T00:25:39.614Z,101540.41
2023-10-05T00:28:06.602Z,101537.88
2023-10-05T00:30:33.379Z,101534.50
2023-10-05T00:33:00.966Z,101537.00
2023-10-05T00:35:28.873Z,101542.03
2023-10-05T00:37:57.734Z,101543.69
2023-10-05T00:40:24.634Z,101539.47
2023-10-05T00:42:51.185Z,101536.00
2023-10-05T00:45:17.911Z,101534.25
2023-10-05T00:47:45.779Z,101521.38
2023-10-05T00:50:12.969Z,101524.78
2023-10-05T00:52:41.014Z,101520.47
2023-10-05T00:55:07.936Z,101520.47
2023-10-05T00:57:34.762Z,101520.47
2023-10-05T01:00:01.219Z,101520.50
2023-10-05T01:02:27.965Z,101513.66
2023-10-05T01:04:54.990Z,101512.75
2023-10-05T01:07:22.667Z,101511.03
2023-10-05T01:09:53.963Z,101510.19
2023-10-05T01:12:21.141Z,101511.84
2023-10-05T01:14:48.033Z,101509.25
2023-10-05T01:17:15.191Z,101510.97
2023-10-05T01:19:44.022Z,101506.72
2023-10-05T01:22:11.594Z,101496.44
2023-10-05T01:24:38.119Z,101489.59
2023-10-05T01:27:04.570Z,101484.47
2023-10-05T01:29:31.028Z,101474.22
2023-10-05T01:31:58.452Z,101466.53
2023-10-05T01:34:24.967Z,101462.28
2023-10-05T01:36:51.420Z,101453.72
2023-10-05T01:39:17.859Z,101457.13
2023-10-05T01:41:44.291Z,101452.88
2023-10-05T01:44:10.806Z,101451.16
2023-10-05T01:46:37.738Z,101450.28
2023-10-05T01:49:04.601Z,101445.13
2023-10-05T01:51:31.551Z,101450.25
2023-10-05T01:53:58.111Z,101459.63
2023-10-05T01:56:24.783Z,101451.09
2023-10-05T01:58:51.495Z,101451.06
2023-10-05T02:01:21.032Z,101449.34
2023-10-05T02:03:49.504Z,101448.47
2023-10-05T02:06:16.291Z,101453.59
2023-10-05T02:08:45.322Z,101451.91
2023-10-05T02:11:17.333Z,101445.06
2023-10-05T02:13:43.886Z,101439.94
2023-10-05T02:16:14.700Z,101445.91
2023-10-05T02:18:41.248Z,101445.94
2023-10-05T02:21:13.105Z,101442.50
2023-10-05T02:23:39.582Z,101436.53
2023-10-05T02:26:06.101Z,101427.13
2023-10-05T02:28:32.913Z,101427.09
2023-10-05T02:30:59.480Z,101422.06
2023-10-05T02:33:26.259Z,101416.00
2023-10-05T02:35:52.999Z,101416.91
2023-10-05T02:38:19.419Z,101412.66
2023-10-05T02:40:45.857Z,101412.63
2023-10-05T02:43:12.576Z,101410.94
2023-10-05T02:45:39.078Z,101411.81
2023-10-05T02:48:06.923Z,101412.69
2023-10-05T02:50:34.154Z,101410.13
2023-10-05T02:53:00.909Z,101405.00
2023-10-05T02:55:27.390Z,101411.91
2023-10-05T02:57:55.338Z,101405.88
2023-10-05T03:00:21.856Z,101402.44
2023-10-05T03:02:48.337Z,101403.28
2023-10-05T03:05:15.676Z,101396.47
2023-10-05T03:07:42.275Z,101393.94
2023-10-05T03:10:09.198Z,101391.38
2023-10-05T03:12:35.651Z,101398.25
2023-10-05T03:15:03.682Z,101404.25
2023-10-05T03:17:30.205Z,101400.81
2023-10-05T03:19:56.960Z,101397.41
2023-10-05T03:22:24.934Z,101391.44
2023-10-05T03:24:51.786Z,101397.41
2023-10-05T03:27:18.249Z,101386.31
2023-10-05T03:29:44.731Z,101382.91
2023-10-05T03:32:11.193Z,101385.47
2023-10-05T03:34:38.286Z,101376.13
2023-10-05T03:37:05.923Z,101379.56
2023-10-05T03:39:33.205Z,101381.25
2023-10-05T03:41:59.783Z,101376.97
2023-10-05T03:44:28.018Z,101377.84
2023-10-05T03:46:54.444Z,101380.41
2023-10-05T03:49:21.375Z,101387.22
2023-10-05T03:51:48.091Z,101385.53
2023-10-05T03:54:14.533Z,101382.91
2023-10-05T03:56:40.990Z,101380.38
2023-10-05T03:59:09.074Z,101382.97
2023-10-05T04:01:35.749Z,101375.28
2023-10-05T04:04:02.376Z,101371.00
2023-10-05T04:06:29.159Z,101374.44
2023-10-05T04:08:56.013Z,101367.59
2023-10-05T04:11:25.021Z,101360.66
2023-10-05T04:13:51.471Z,101362.41
2023-10-05T04:16:18.158Z,101357.22
2023-10-05T04:18:45.504Z,101354.59
2023-10-05T04:21:11.968Z,101348.69
2023-10-05T04:23:38.441Z,101353.75
2023-10-05T04:26:05.110Z,101351.16
2023-10-05T04:28:31.929Z,101356.41
2023-10-05T04:30:58.666Z,101341.00
2023-10-05T04:33:25.349Z,101338.47
2023-10-05T04:35:56.634Z,101325.66
2023-10-05T04:38:23.908Z,101329.91
2023-10-05T04:40:53.723Z,101336.75
2023-10-05T04:43:20.517Z,101321.38
2023-10-05T04:45:47.150Z,101314.56
2023-10-05T04:48:14.422Z,101306.81
2023-10-05T04:50:41.811Z,101316.28
2023-10-05T04:53:09.082Z,101313.72
2023-10-05T04:55:35.852Z,101298.41
2023-10-05T04:58:02.365Z,101301.81
2023-10-05T05:00:29.906Z,101303.56
2023-10-05T05:02:56.794Z,101306.19
2023-10-05T05:05:23.321Z,101306.13
2023-10-05T05:07:49.762Z,101303.59
2023-10-05T05:10:16.526Z,101289.91
2023-10-05T05:12:43.034Z,101296.75
2023-10-05T05:15:09.910Z,101288.25
2023-10-05T05:17:36.457Z,101294.19
2023-10-05T05:20:03.013Z,101295.09
2023-10-05T05:22:29.637Z,101293.41
2023-10-05T05:24:56.136Z,101300.22
2023-10-05T05:27:24.000Z,101298.59
2023-10-05T05:29:50.474Z,101296.00
2023-10-05T05:32:16.968Z,101291.72
2023-10-05T05:34:44.635Z,101293.53
2023-10-05T05:37:14.518Z,101291.81
2023-10-05T05:39:42.365Z,101292.66
2023-10-05T05:42:10.445Z,101283.22
2023-10-05T05:44:36.889Z,101294.41
2023-10-05T05:47:03.934Z,101289.28
2023-10-05T05:49:30.512Z,101291.06
2023-10-05T05:51:56.983Z,101286.81
2023-10-05T05:54:24.563Z,101290.25
2023-10-05T05:56:53.807Z,101294.56
2023-10-05T05:59:20.298Z,101297.19
2023-10-05T06:01:46.819Z,101294.63
2023-10-05T06:04:14.426Z,101294.66
2023-10-05T06:06:41.250Z,101303.25
2023-10-05T06:09:07.725Z,101302.44
2023-10-05T06:11:34.478Z,101308.44
2023-10-05T06:14:02.458Z,101297.31
2023-10-05T06:16:29.242Z,101307.66
2023-10-05T06:18:55.876Z,101299.13
2023-10-05T06:21:22.609Z,101303.44
2023-10-05T06:23:51.411Z,101300.00
2023-10-05T06:26:17.906Z,101303.44
2023-10-05T06:28:44.703Z,101305.19
2023-10-05T06:31:11.991Z,101300.06
2023-10-05T06:33:38.695Z,101299.22
2023-10-05T06:36:05.382Z,101298.38
2023-10-05T06:38:31.835Z,101302.69
2023-10-05T06:40:58.257Z,101297.56
2023-10-05T06:43:24.753Z,101308.72
2023-10-05T06:45:51.239Z,101302.75
2023-10-05T06:48:17.738Z,101295.03
2023-10-05T06:50:44.209Z,101299.34
2023-10-05T06:53:10.688Z,101300.19
2023-10-05T06:55:37.252Z,101287.38
2023-10-05T06:58:05.415Z,101286.53
2023-10-05T07:00:32.206Z,101301.94
2023-10-05T07:02:58.726Z,101298.50
2023-10-05T07:05:26.276Z,101296.81
2023-10-05T07:07:52.796Z,101295.94
2023-10-05T07:10:19.585Z,101302.81
2023-10-05T07:12:46.070Z,101299.41
2023-10-05T07:15:12.525Z,101299.41
2023-10-05T07:17:39.101Z,101295.97
2023-10-05T07:20:06.363Z,101306.25
2023-10-05T07:22:32.792Z,101308.00
2023-10-05T07:24:59.490Z,101309.72
2023-10-05T07:27:25.941Z,101310.56
2023-10-05T07:29:53.124Z,101314.88
2023-10-05T07:32:19.948Z,101315.72
2023-10-05T07:34:48.798Z,101309.72
2023-10-05T07:37:18.554Z,101309.72
2023-10-05T07:39:46.303Z,101314.88
2023-10-05T07:42:12.750Z,101315.75
2023-10-05T07:44:40.586Z,101320.91
2023-10-05T07:47:07.701Z,101330.31
2023-10-05T07:49:36.594Z,101325.16
2023-10-05T07:52:04.933Z,101332.84
2023-10-05T07:54:32.572Z,101338.00
2023-10-05T07:56:59.374Z,101341.44
2023-10-05T07:59:27.199Z,101344.84
2023-10-05T08:01:53.798Z,101342.22
2023-10-05T08:04:20.939Z,101352.53
2023-10-05T08:06:47.809Z,101350.78
2023-10-05T08:09:14.582Z,101352.47
2023-10-05T08:11:40.984Z,101361.06
2023-10-05T08:14:07.827Z,101347.25
2023-10-05T08:16:34.437Z,101355.00
2023-10-05T08:19:01.588Z,101361.03
2023-10-05T08:21:28.063Z,101361.03
2023-10-05T08:23:54.875Z,101354.97
2023-10-05T08:26:21.393Z,101365.31
2023-10-05T08:28:47.859Z,101359.25
2023-10-05T08:31:14.446Z,101369.56
2023-10-05T08:33:41.256Z,101354.94
2023-10-05T08:36:10.930Z,101361.81
2023-10-05T08:38:37.316Z,101366.13
2023-10-05T08:41:04.085Z,101362.66
2023-10-05T08:43:31.218Z,101363.50
2023-10-05T08:46:03.689Z,101359.22
2023-10-05T08:48:31.128Z,101361.81
2023-10-05T08:51:02.918Z,101360.97
2023-10-05T08:53:29.436Z,101358.38
2023-10-05T08:55:58.607Z,101347.13
2023-10-05T08:58:25.034Z,101346.16
2023-10-05T09:00:51.622Z,101350.31
2023-10-05T09:03:18.405Z,101353.66
2023-10-05T09:06:01.940Z,101357.81
2023-10-05T09:08:28.445Z,101357.72
2023-10-05T09:11:02.162Z,101353.31
2023-10-05T09:13:43.806Z,101348.13
2023-10-05T09:16:10.411Z,101353.25
2023-10-05T09:18:47.965Z,101352.44
2023-10-05T09:21:14.670Z,101342.13
2023-10-05T09:23:41.361Z,101354.09
2023-10-05T09:26:22.450Z,101340.22
2023-10-05T09:28:48.860Z,101355.72
2023-10-05T09:31:18.862Z,101353.13
2023-10-05T09:33:50.714Z,101353.09
2023-10-05T09:36:18.039Z,101355.56
2023-10-05T09:38:45.271Z,101352.13
2023-10-05T09:41:15.678Z,101358.94
2023-10-05T09:43:44.250Z,101354.63
2023-10-05T09:46:12.163Z,101365.03
2023-10-05T09:48:40.160Z,101348.69
2023-10-05T09:51:10.714Z,101370.38
2023-10-05T09:53:41.222Z,101372.06
2023-10-05T09:56:08.592Z,101368.66
2023-10-05T09:58:35.912Z,101374.75
2023-10-05T10:01:02.382Z,101369.69
2023-10-05T10:03:28.873Z,101373.06
2023-10-05T10:06:00.995Z,101375.72
2023-10-05T10:08:31.986Z,101373.94
2023-10-05T10:11:03.576Z,101373.13
2023-10-05T10:13:35.271Z,101376.63
2023-10-05T10:16:13.885Z,101373.13
2023-10-05T10:18:41.398Z,101375.72
2023-10-05T10:21:19.470Z,101386.06
2023-10-05T10:23:51.652Z,101381.75
2023-10-05T10:26:18.555Z,101392.06
2023-10-05T10:28:52.203Z,101378.28
2023-10-05T10:31:25.839Z,101394.66
2023-10-05T10:33:53.470Z,101383.53
2023-10-05T10:36:40.711Z,101393.03
2023-10-05T10:39:08.165Z,101400.84
2023-10-05T10:41:57.573Z,101395.69
2023-10-05T10:44:24.099Z,101406.06
2023-10-05T10:46:51.586Z,101403.53
2023-10-05T10:49:18.106Z,101413.06
2023-10-05T10:51:44.785Z,101413.22
2023-10-05T10:54:11.784Z,101424.50
2023-10-05T10:56:41.275Z,101417.69
2023-10-05T10:59:08.195Z,101418.53
2023-10-05T11:01:36.647Z,101416.81
2023-10-05T11:04:04.903Z,101422.00
2023-10-05T11:06:38.607Z,101422.00
2023-10-05T11:09:05.169Z,101418.56
2023-10-05T11:11:37.811Z,101422.88
2023-10-05T11:14:04.558Z,101417.72
2023-10-05T11:16:35.235Z,101427.19
2023-10-05T11:19:01.827Z,101431.47
2023-10-05T11:21:28.404Z,101430.63
2023-10-05T11:23:55.692Z,101435.81
2023-10-05T11:26:22.176Z,101434.97
2023-10-05T11:28:49.423Z,101434.97
2023-10-05T11:31:22.403Z,101434.09
2023-10-05T11:34:21.088Z,101430.69
2023-10-05T11:36:40.345Z,101435.81
2023-10-05T11:39:07.833Z,101433.22
2023-10-05T11:41:35.699Z,101425.47
2023-10-05T11:44:02.223Z,101431.47
2023-10-05T11:46:45.343Z,101421.09
2023-10-05T11:49:14.494Z,101422.78
2023-10-05T11:51:41.159Z,101428.75
2023-10-05T11:54:08.025Z,101414.06
2023-10-05T11:56:34.986Z,101426.09
2023-10-05T11:59:01.599Z,101427.81
2023-10-05T12:01:28.583Z,101430.41
2023-10-05T12:03:55.168Z,101439.00
2023-10-05T12:06:21.801Z,101440.78
2023-10-05T12:08:48.349Z,101447.72
2023-10-05T12:11:14.754Z,101442.59
2023-10-05T12:13:41.466Z,101447.81
2023-10-05T12:16:08.166Z,101438.38
2023-10-05T12:18:34.802Z,101440.94
2023-10-05T12:21:02.071Z,101442.66
2023-10-05T12:23:30.007Z,101441.81
2023-10-05T12:25:56.479Z,101444.38
2023-10-05T12:28:24.173Z,101439.22
2023-10-05T12:30:51.701Z,101434.91
2023-10-05T12:33:18.304Z,101438.34
2023-10-05T12:35:47.336Z,101440.03
2023-10-05T12:38:13.996Z,101440.88
2023-10-05T12:40:40.876Z,101439.13
2023-10-05T12:45:43.455Z,101427.03
2023-10-05T12:48:10.598Z,101429.63
2023-10-05T12:50:37.054Z,101429.59
2023-10-05T12:53:03.773Z,101430.50
2023-10-05T12:55:31.133Z,101436.47
2023-10-05T12:57:57.817Z,101448.53
2023-10-05T13:00:25.859Z,101450.31
2023-10-05T13:02:56.065Z,101443.41
2023-10-05T13:05:30.441Z,101457.22
2023-10-05T13:07:59.526Z,101473.59
2023-10-05T13:10:26.313Z,101487.38
2023-10-05T13:12:55.835Z,101506.31
2023-10-05T13:15:22.631Z,101524.38
2023-10-05T13:17:49.090Z,101523.50
2023-10-05T13:20:15.583Z,101527.75
2023-10-05T13:22:42.664Z,101528.56
2023-10-05T13:25:09.475Z,101519.06
2023-10-05T13:27:36.067Z,101522.41
2023-10-05T13:30:05.058Z,101523.25
2023-10-05T13:32:31.670Z,101518.09
2023-10-05T13:34:59.704Z,101513.78
2023-10-05T13:37:28.116Z,101515.44
2023-10-05T13:39:54.987Z,101517.13
2023-10-05T13:42:21.486Z,101522.28
2023-10-05T13:44:48.936Z,101528.16
2023-10-05T13:47:15.701Z,101527.31
2023-10-05T13:49:42.247Z,101524.78
2023-10-05T13:52:09.180Z,101523.91
2023-10-05T13:54:36.022Z,101515.31
2023-10-05T13:57:03.289Z,101500.75
2023-10-05T13:59:30.063Z,101521.34
2023-10-05T14:01:56.932Z,101523.91
2023-10-05T14:04:23.469Z,101523.94
2023-10-05T14:06:50.384Z,101525.72
2023-10-05T14:09:16.914Z,101518.03
2023-10-05T14:11:44.597Z,101512.91
2023-10-05T14:14:12.370Z,101517.25
2023-10-05T14:16:42.300Z,101519.81
2023-10-05T14:19:09.150Z,101506.13
2023-10-05T14:21:36.111Z,101505.28
2023-10-05T14:24:02.647Z,101503.59
2023-10-05T14:26:29.100Z,101505.31
2023-10-05T14:28:55.881Z,101507.00
2023-10-05T14:31:25.529Z,101511.31
2023-10-05T14:33:52.094Z,101513.00
2023-10-05T14:36:19.036Z,101507.84
2023-10-05T14:38:45.737Z,101503.59
2023-10-05T14:41:12.423Z,101510.53
2023-10-05T14:43:38.938Z,101511.41
2023-10-05T14:46:05.372Z,101513.94
2023-10-05T14:48:31.973Z,101517.34
2023-10-05T14:51:02.624Z,101518.19
2023-10-05T14:53:29.037Z,101515.63
2023-10-05T14:55:56.661Z,101519.88
2023-10-05T14:58:24.030Z,101520.78
2023-10-05T15:00:50.529Z,101525.91
2023-10-05T15:03:17.369Z,101525.09
2023-10-05T15:05:44.387Z,101526.84
2023-10-05T15:08:11.371Z,101524.22
2023-10-05T15:10:37.906Z,101528.53
2023-10-05T15:13:04.552Z,101525.97
2023-10-05T15:15:31.451Z,101525.16
2023-10-05T15:18:00.014Z,101529.41
2023-10-05T15:20:26.518Z,101531.97
2023-10-05T15:22:53.188Z,101531.91
2023-10-05T15:25:21.208Z,101531.06
2023-10-05T15:27:49.871Z,101528.47
2023-10-05T15:30:17.965Z,101534.47
2023-10-05T15:32:46.263Z,101537.88
2023-10-05T15:35:15.570Z,101546.41
2023-10-05T15:37:44.860Z,101543.81
2023-10-05T15:40:12.831Z,101545.56
2023-10-05T15:42:53.424Z,101542.94
2023-10-05T15:45:24.700Z,101543.78
2023-10-05T15:47:52.993Z,101543.75
2023-10-05T15:50:22.613Z,101554.00
2023-10-05T15:52:58.540Z,101551.41
2023-10-05T15:55:26.139Z,101552.25
2023-10-05T15:57:53.227Z,101554.81
2023-10-05T16:00:21.126Z,101553.06
2023-10-05T16:02:47.648Z,101554.75
2023-10-05T16:05:16.848Z,101559.03
2023-10-05T16:07:44.334Z,101554.66
2023-10-05T16:10:11.212Z,101567.47
2023-10-05T16:12:38.347Z,101569.16
2023-10-05T16:15:06.518Z,101576.03
2023-10-05T16:17:33.077Z,101564.78
2023-10-05T16:19:59.578Z,101572.50
2023-10-05T16:22:26.884Z,101583.63
2023-10-05T16:24:53.354Z,101578.44
2023-10-05T16:27:19.896Z,101578.41
2023-10-05T16:29:46.392Z,101584.44
2023-10-05T16:32:12.922Z,101586.03
2023-10-05T16:34:39.394Z,101596.38
2023-10-05T16:37:05.851Z,101601.47
2023-10-05T16:39:32.328Z,101602.31
2023-10-05T16:41:58.798Z,101609.97
2023-10-05T16:44:25.250Z,101614.22
2023-10-05T16:46:51.748Z,101619.31
2023-10-05T16:49:18.269Z,101615.03
2023-10-05T16:51:44.737Z,101613.22
2023-10-05T16:54:11.447Z,101621.75
2023-10-05T16:56:53.301Z,101630.25
2023-10-05T16:59:21.239Z,101632.84
2023-10-05T17:01:47.818Z,101626.75
2023-10-05T17:04:16.379Z,101628.47
2023-10-05T17:06:43.097Z,101636.97
2023-10-05T17:09:10.123Z,101639.56
2023-10-05T17:11:39.919Z,101635.19
2023-10-05T17:14:06.647Z,101645.44
2023-10-05T17:16:33.702Z,101650.56
2023-10-05T17:19:00.390Z,101650.50
2023-10-05T17:21:29.937Z,101650.47
2023-10-05T17:23:56.777Z,101653.00
2023-10-05T17:26:29.895Z,101656.44
2023-10-05T17:28:56.468Z,101663.22
2023-10-05T17:31:23.107Z,101659.78
2023-10-05T17:33:49.661Z,101669.19
2023-10-05T17:36:16.148Z,101670.03
2023-10-05T17:38:42.690Z,101676.84
2023-10-05T17:41:09.283Z,101671.72
2023-10-05T17:43:35.990Z,101673.38
2023-10-05T17:46:02.494Z,101677.63
2023-10-05T17:48:28.904Z,101684.44
2023-10-05T17:50:56.248Z,101684.47
2023-10-05T17:53:27.414Z,101681.88
2023-10-05T17:55:54.866Z,101690.44
2023-10-05T17:58:21.500Z,101686.22
2023-10-05T18:00:48.241Z,101688.81
2023-10-05T18:03:15.189Z,101688.84
2023-10-05T18:05:41.655Z,101689.72
2023-10-05T18:08:08.056Z,101694.16
2023-10-05T18:10:40.842Z,101694.09
2023-10-05T18:13:07.602Z,101690.69
2023-10-05T18:15:33.997Z,101694.09
2023-10-05T18:18:00.459Z,101698.47
2023-10-05T18:20:26.919Z,101697.66
2023-10-05T18:22:53.555Z,101701.97
2023-10-05T18:25:20.169Z,101709.75
2023-10-05T18:27:46.755Z,101710.59
2023-10-05T18:30:13.575Z,101714.84
2023-10-05T18:32:42.684Z,101712.28
2023-10-05T18:35:09.506Z,101713.03
2023-10-05T18:37:36.033Z,101711.31
2023-10-05T18:40:02.507Z,101713.81
2023-10-05T18:42:28.894Z,101721.53
2023-10-05T18:44:55.362Z,101713.81
2023-10-05T18:47:21.801Z,101722.41
2023-10-05T18:49:48.206Z,101717.25
2023-10-05T18:52:14.604Z,101718.19
2023-10-05T18:54:41.019Z,101715.63
2023-10-05T18:57:07.421Z,101728.50
2023-10-05T18:59:33.817Z,101721.66
2023-10-05T19:02:00.606Z,101733.63
2023-10-05T19:04:27.270Z,101729.28
2023-10-05T19:06:54.307Z,101738.69
2023-10-05T19:09:20.593Z,101735.28
2023-10-05T19:11:47.003Z,101742.09
2023-10-05T19:14:13.608Z,101749.75
2023-10-05T19:16:40.093Z,101749.72
2023-10-05T19:19:07.425Z,101753.97
2023-10-05T19:21:34.117Z,101756.53
2023-10-05T19:24:00.524Z,101753.09
2023-10-05T19:26:27.024Z,101754.84
2023-10-05T19:28:53.584Z,101758.16
2023-10-05T19:31:20.764Z,101756.50
2023-10-05T19:33:47.473Z,101758.16
2023-10-05T19:36:13.934Z,101764.13
2023-10-05T19:38:41.377Z,101767.56
2023-10-05T19:41:09.838Z,101765.81
2023-10-05T19:43:36.273Z,101765.81
2023-10-05T19:46:02.776Z,101769.16
2023-10-05T19:48:29.244Z,101773.34
2023-10-05T19:50:55.740Z,101782.78
2023-10-05T19:53:22.187Z,101775.97
2023-10-05T19:55:56.567Z,101784.50
2023-10-05T19:58:23.230Z,101785.31
2023-10-05T20:00:49.882Z,101784.44
2023-10-05T20:03:16.545Z,101786.16
2023-10-05T20:05:43.124Z,101788.69
2023-10-05T20:08:09.573Z,101794.69
2023-10-05T20:10:36.734Z,101790.47
2023-10-05T20:13:03.545Z,101783.56
2023-10-05T20:15:30.090Z,101786.09
2023-10-05T20:17:56.543Z,101783.50
2023-10-05T20:20:25.634Z,101783.59
2023-10-05T20:22:53.269Z,101789.50
2023-10-05T20:25:20.055Z,101790.38
2023-10-05T20:27:46.483Z,101789.50
2023-10-05T20:30:13.380Z,101797.25
2023-10-05T20:32:40.059Z,101795.59
2023-10-05T20:35:09.005Z,101798.16
2023-10-05T20:37:36.040Z,101797.28
2023-10-05T20:40:02.946Z,101795.59
2023-10-05T20:42:29.628Z,101798.19
2023-10-05T20:44:56.063Z,101797.34
2023-10-05T20:47:22.679Z,101798.25
2023-10-05T20:49:49.421Z,101801.69
2023-10-05T20:52:16.334Z,101804.31
2023-10-05T20:54:43.095Z,101812.88
2023-10-05T20:57:09.720Z,101808.59
2023-10-05T20:59:36.179Z,101811.22
2023-10-05T21:02:02.711Z,101810.44
2023-10-05T21:04:30.121Z,101807.88
2023-10-05T21:06:56.915Z,101804.47
2023-10-05T21:09:24.067Z,101808.81
2023-10-05T21:11:51.280Z,101813.97
2023-10-05T21:14:20.115Z,101807.16
2023-10-05T21:16:47.435Z,101799.44
2023-10-05T21:19:14.172Z,101806.34
2023-10-05T21:21:40.689Z,101800.34
2023-10-05T21:24:08.210Z,101800.34
2023-10-05T21:26:35.841Z,101800.38
2023-10-05T21:29:04.058Z,101804.63
2023-10-05T21:31:33.122Z,101806.38
2023-10-05T21:34:01.300Z,101805.50
2023-10-05T21:36:28.000Z,101804.66
2023-10-05T21:38:56.841Z,101805.50
2023-10-05T21:41:23.337Z,101807.28
2023-10-05T21:43:50.064Z,101810.69
2023-10-05T21:46:19.982Z,101811.56
2023-10-05T21:48:46.842Z,101811.56
2023-10-05T21:51:15.319Z,101813.31
2023-10-05T21:53:43.340Z,101815.00
2023-10-05T21:56:10.462Z,101808.19
2023-10-05T21:58:41.645Z,101801.34
2023-10-05T22:01:08.168Z,101803.06
2023-10-05T22:03:35.789Z,101808.19
2023-10-05T22:06:02.428Z,101811.59
2023-10-05T22:08:28.802Z,101812.41
2023-10-05T22:10:56.025Z,101814.16
2023-10-05T22:13:23.296Z,101811.59
2023-10-05T22:15:49.747Z,101813.31
2023-10-05T22:18:16.464Z,101820.16
2023-10-05T22:20:43.337Z,101821.03
2023-10-05T22:23:11.433Z,101813.34
2023-10-05T22:25:40.351Z,101815.91
2023-10-05T22:28:08.572Z,101822.75
2023-10-05T22:30:35.708Z,101817.59
2023-10-05T22:33:02.306Z,101818.47
2023-10-05T22:35:29.250Z,101824.47
2023-10-05T22:37:56.014Z,101829.59
2023-10-05T22:40:22.932Z,101827.03
2023-10-05T22:42:49.327Z,101827.88
2023-10-05T22:45:16.122Z,101831.28
2023-10-05T22:47:43.689Z,101828.75
2023-10-05T22:50:10.780Z,101826.16
2023-10-05T22:52:41.144Z,101833.88
2023-10-05T22:55:07.986Z,101831.34
2023-10-05T22:57:34.622Z,101837.34
2023-10-05T23:00:01.127Z,101830.47
2023-10-05T23:02:27.877Z,101832.19
2023-10-05T23:04:54.580Z,101832.16
2023-10-05T23:07:21.075Z,101827.88
2023-10-05T23:09:50.177Z,101827.88
2023-10-05T23:12:17.510Z,101820.16
2023-10-05T23:14:44.990Z,101829.59
2023-10-05T23:17:12.440Z,101826.19
2023-10-05T23:19:39.165Z,101827.88
2023-10-05T23:22:06.766Z,101836.44
2023-10-05T23:24:33.594Z,101837.31
2023-10-05T23:27:00.104Z,101840.72
2023-10-05T23:29:29.744Z,101849.28
2023-10-05T23:31:58.108Z,101844.16
2023-10-05T23:34:30.232Z,101850.16
2023-10-05T23:36:57.207Z,101849.31
2023-10-05T23:39:26.964Z,101846.75
2023-10-05T23:41:56.946Z,101844.19
2023-10-05T23:44:26.826Z,101854.47
2023-10-05T23:47:07.200Z,101851.06
2023-10-05T23:49:42.875Z,101849.34
2023-10-05T23:52:09.583Z,101854.47
2023-10-05T23:54:36.056Z,101847.66
2023-10-05T23:57:02.580Z,101845.97
2023-10-05T23:59:29.282Z,101842.56
